Time;durP1;ratioP1;P1;durP2;ratioP2;P2;SDS_P1;SDS_P2;PMS_P1;PMS_P2;Temp;Humidity;BMP_temperature;BMP_pressure;BME280_temperature;BME280_humidity;BME280_pressure;Samples;Min_cycle;Max_cycle;Signal;HPM_P1;HPM_P2
2023/03/19 00:01:26;;;;;;;9.52;4.53;;;154.30;2252.80;;;;;;5075586;28;20078;-75
2023/03/19 00:03:52;;;;;;;;;;;154.20;2252.80;;;;;;5052177;28;20070;-75
2023/03/19 00:06:18;;;;;;;7.90;4.63;;;154.10;2252.80;;;;;;5073221;28;20316;-76
2023/03/19 00:08:43;;;;;;;;;;;154.20;2252.80;;;;;;5050468;28;20063;-75
2023/03/19 00:11:11;;;;;;;10.68;4.50;;;154.30;2252.80;;;;;;5057346;28;19912;-75
2023/03/19 00:13:37;;;;;;;9.35;4.72;;;154.40;2252.80;;;;;;5050085;28;20027;-75
2023/03/19 00:16:04;;;;;;;8.00;4.78;;;154.30;2252.80;;;;;;5075086;28;20024;-75
2023/03/19 00:18:29;;;;;;;8.15;4.55;;;154.30;2252.80;;;;;;5053674;28;20045;-75
2023/03/19 00:20:55;;;;;;;;;;;154.10;2252.80;;;;;;5045472;28;20395;-76
2023/03/19 00:23:21;;;;;;;14.20;4.43;;;154.00;2252.80;;;;;;5053996;28;19904;-76
2023/03/19 00:25:47;;;;;;;14.98;4.80;;;153.80;2252.80;;;;;;5053875;28;20025;-76
2023/03/19 00:28:13;;;;;;;;;;;153.70;2252.80;;;;;;5053633;28;20033;-75
2023/03/19 00:30:38;;;;;;;11.30;4.70;;;153.60;2252.80;;;;;;5053549;28;19960;-75
2023/03/19 00:33:04;;;;;;;;;;;128.90;2252.80;;;;;;5055286;28;20021;-75
2023/03/19 00:35:30;;;;;;;9.02;5.13;;;128.70;2252.80;;;;;;5054731;28;19955;-75
2023/03/19 00:37:56;;;;;;;;;;;128.90;2252.80;;;;;;5055216;28;20029;-75
2023/03/19 00:40:22;;;;;;;11.77;4.40;;;128.90;2252.80;;;;;;5054627;28;19905;-76
2023/03/19 00:42:47;;;;;;;;;;;128.80;2252.80;;;;;;5055428;28;20027;-76
2023/03/19 00:45:13;;;;;;;10.32;5.15;;;128.90;2252.80;;;;;;5053276;28;19951;-75
2023/03/19 00:47:38;;;;;;;;;;;153.60;2252.80;;;;;;5055120;28;20021;-75
2023/03/19 00:50:05;;;;;;;10.40;4.93;;;153.70;2252.80;;;;;;5053598;28;19912;-75
2023/03/19 00:52:31;;;;;;;9.48;4.47;;;153.80;2252.80;;;;;;5053231;28;20033;-74
2023/03/19 00:54:57;;;;;;;;;;;153.80;2252.80;;;;;;5053405;28;20558;-75
2023/03/19 00:57:23;;;;;;;9.07;4.03;;;153.80;2252.80;;;;;;5054335;28;19912;-75
2023/03/19 00:59:48;;;;;;;;;;;153.90;2252.80;;;;;;5053944;28;20112;-75
2023/03/19 01:02:14;;;;;;;9.82;4.15;;;154.10;2252.80;;;;;;5052848;28;19958;-75
2023/03/19 01:04:40;;;;;;;;;;;154.20;2252.80;;;;;;5045099;28;20386;-75
2023/03/19 01:07:06;;;;;;;9.65;5.10;;;154.20;2252.80;;;;;;5053775;28;19927;-75
2023/03/19 01:09:31;;;;;;;;;;;154.30;2252.80;;;;;;5052287;28;20037;-75
2023/03/19 01:11:57;;;;;;;8.95;4.82;;;154.20;2252.80;;;;;;5052641;28;19917;-75
2023/03/19 01:14:24;;;;;;;10.43;5.20;;;154.20;2252.80;;;;;;5045488;28;20482;-75
2023/03/19 01:16:50;;;;;;;11.80;4.43;;;154.30;2252.80;;;;;;5046612;28;20045;-75
2023/03/19 01:19:15;;;;;;;;;;;154.30;2252.80;;;;;;5054377;28;20027;-75
2023/03/19 01:21:44;;;;;;;9.43;4.85;;;154.40;2252.80;;;;;;5043136;28;20393;-75
2023/03/19 01:24:11;;;;;;;14.65;5.70;;;154.30;2252.80;;;;;;5045092;28;20027;-75
2023/03/19 01:26:37;;;;;;;12.65;5.00;;;154.30;2252.80;;;;;;5052436;28;20060;-75
2023/03/19 01:29:03;;;;;;;;;;;154.20;2252.80;;;;;;5053522;28;20438;-75
2023/03/19 01:31:29;;;;;;;16.75;5.38;;;154.10;2252.80;;;;;;5053545;28;19912;-75
2023/03/19 01:33:54;;;;;;;;;;;154.10;2252.80;;;;;;5040831;28;20061;-75
2023/03/19 01:36:20;;;;;;;9.57;4.85;;;154.00;2252.80;;;;;;5053633;28;19904;-75
2023/03/19 01:38:46;;;;;;;;;;;154.00;2252.80;;;;;;5063411;28;20045;-76
2023/03/19 01:41:11;;;;;;;12.18;5.25;;;154.00;2252.80;;;;;;5052437;28;19952;-75
2023/03/19 01:43:37;;;;;;;;;;;154.00;2252.80;;;;;;5054241;28;20025;-75
2023/03/19 01:46:21;;;;;;;12.43;4.78;;;154.00;2252.80;;;;;;5052217;28;19967;-75
2023/03/19 01:48:50;;;;;;;12.82;4.75;;;153.80;2252.80;;;;;;5041988;28;20025;-75
2023/03/19 01:51:19;;;;;;;8.68;5.10;;;153.80;2252.80;;;;;;5053487;28;20040;-75
2023/03/19 01:53:48;;;;;;;9.73;5.22;;;153.70;2252.80;;;;;;5053208;28;20020;-75
2023/03/19 01:56:28;;;;;;;12.73;5.32;;;128.90;2252.80;;;;;;5046285;28;20430;-75
2023/03/19 01:58:57;;;;;;;11.55;5.13;;;128.90;2252.80;;;;;;5051810;28;20574;-75
2023/03/19 02:01:25;;;;;;;10.88;4.65;;;128.90;2252.80;;;;;;5045677;28;20036;-74
2023/03/19 02:03:52;;;;;;;10.57;5.80;;;128.90;2252.80;;;;;;5047838;28;20021;-75
2023/03/19 02:06:20;;;;;;;14.82;5.97;;;153.60;2252.80;;;;;;5046358;28;20131;-75
2023/03/19 02:08:47;;;;;;;11.63;5.38;;;153.70;2252.80;;;;;;5048608;28;20132;-75
2023/03/19 02:11:13;;;;;;;9.23;5.03;;;153.60;2252.80;;;;;;5048478;28;20486;-75
2023/03/19 02:13:39;;;;;;;;;;;153.60;2252.80;;;;;;5053333;28;20028;-75
2023/03/19 02:16:05;;;;;;;9.65;5.00;;;153.70;2252.80;;;;;;5052642;28;19904;-75
2023/03/19 02:18:31;;;;;;;9.40;5.25;;;128.90;2252.80;;;;;;5032321;28;20037;-75
2023/03/19 02:21:05;;;;;;;;;;;153.60;2252.80;;;;;;5032170;28;20032;-75
2023/03/19 02:24:05;;;;;;;11.32;5.15;;;153.60;2252.80;;;;;;5032044;28;19912;-76
2023/03/19 02:26:31;;;;;;;11.23;5.28;;;128.90;2252.80;;;;;;5031456;28;20025;-75
2023/03/19 02:28:57;;;;;;;;;;;128.90;2252.80;;;;;;5033760;28;20109;-75
2023/03/19 02:31:23;;;;;;;10.88;4.28;;;128.80;2252.80;;;;;;5031398;28;20392;-74
2023/03/19 02:34:17;;;;;;;9.50;5.20;;;128.70;2252.80;;;;;;5031518;28;20021;-75
2023/03/19 02:36:50;;;;;;;12.85;4.95;;;128.70;2252.80;;;;;;5011355;28;20509;-75
2023/03/19 02:39:34;;;;;;;12.55;5.50;;;128.80;2252.80;;;;;;5031891;28;20053;-75
2023/03/19 02:42:01;;;;;;;10.07;4.75;;;128.90;2252.80;;;;;;5018357;28;20025;-76
2023/03/19 02:44:26;;;;;;;8.90;4.28;;;128.70;2252.80;;;;;;5023035;28;20014;-75
2023/03/19 02:46:52;;;;;;;;;;;128.60;2252.80;;;;;;5023322;28;20021;-75
2023/03/19 02:49:18;;;;;;;9.82;4.95;;;128.50;2252.80;;;;;;5021654;28;20358;-75
2023/03/19 02:51:43;;;;;;;;;;;128.40;2252.80;;;;;;4999626;28;20070;-75
2023/03/19 02:54:09;;;;;;;9.23;4.78;;;128.40;2252.80;;;;;;5021604;28;19987;-75
2023/03/19 02:56:35;;;;;;;;;;;128.30;2252.80;;;;;;5003408;28;20112;-76
2023/03/19 02:59:01;;;;;;;9.80;5.15;;;128.30;2252.80;;;;;;5012190;28;19917;-76
2023/03/19 03:01:27;;;;;;;;;;;128.30;2252.80;;;;;;4999443;28;20423;-77
2023/03/19 03:03:53;;;;;;;6.95;3.63;;;128.20;2252.80;;;;;;5020538;28;19905;-75
2023/03/19 03:06:19;;;;;;;;;;;128.30;2252.80;;;;;;5019520;28;20021;-76
2023/03/19 03:08:45;;;;;;;12.55;5.63;;;128.30;2252.80;;;;;;5020522;28;19910;-76
2023/03/19 03:11:10;;;;;;;;;;;128.40;2252.80;;;;;;5019555;28;20038;-75
2023/03/19 03:13:36;;;;;;;6.57;4.45;;;128.40;2252.80;;;;;;5008295;28;19916;-75
2023/03/19 03:16:02;;;;;;;;;;;128.40;2252.80;;;;;;5021928;28;20463;-75
2023/03/19 03:18:27;;;;;;;7.68;4.28;;;128.40;2252.80;;;;;;5040789;28;20286;-76
2023/03/19 03:20:53;;;;;;;;;;;128.40;2252.80;;;;;;5072405;28;20377;-76
2023/03/19 03:23:20;;;;;;;12.73;4.95;;;128.50;2252.80;;;;;;5072166;28;19904;-75
2023/03/19 03:25:50;;;;;;;11.38;4.93;;;128.40;2252.80;;;;;;5054108;28;20020;-75
2023/03/19 03:28:16;;;;;;;9.52;4.18;;;128.30;2252.80;;;;;;5072319;28;20032;-76
2023/03/19 03:30:42;;;;;;;;;;;128.30;2252.80;;;;;;5058182;28;20072;-75
2023/03/19 03:33:08;;;;;;;9.60;5.75;;;128.10;2252.80;;;;;;5075940;28;20277;-76
2023/03/19 03:35:34;;;;;;;13.38;5.10;;;128.00;2252.80;;;;;;5052238;28;20052;-75
2023/03/19 03:38:00;;;;;;;;;;;128.10;2252.80;;;;;;5052836;28;20059;-76
2023/03/19 03:40:26;;;;;;;9.00;4.55;;;128.10;2252.80;;;;;;5075571;28;19930;-75
2023/03/19 03:42:52;;;;;;;11.57;4.50;;;128.10;2252.80;;;;;;5085233;28;20050;-76
2023/03/19 03:45:17;;;;;;;;;;;128.20;2252.80;;;;;;5056395;28;20013;-75
2023/03/19 03:47:43;;;;;;;11.73;4.55;;;128.20;2252.80;;;;;;5073773;28;19905;-75
2023/03/19 03:50:12;;;;;;;;;;;128.30;2252.80;;;;;;5049433;28;20033;-75
2023/03/19 03:52:38;;;;;;;10.05;5.10;;;128.20;2252.80;;;;;;5057620;28;19908;-76
2023/03/19 03:55:05;;;;;;;8.95;4.70;;;128.20;2252.80;;;;;;5075420;28;20023;-76
2023/03/19 03:57:30;;;;;;;10.95;5.78;;;128.20;2252.80;;;;;;5075174;28;20078;-75
2023/03/19 03:59:56;;;;;;;;;;;128.40;2252.80;;;;;;5075914;28;20025;-75
2023/03/19 04:02:22;;;;;;;7.93;4.38;;;128.50;2252.80;;;;;;5056914;28;20269;-76
2023/03/19 04:04:47;;;;;;;;;;;128.40;2252.80;;;;;;5075165;28;20382;-75
2023/03/19 04:07:13;;;;;;;10.15;5.22;;;128.30;2252.80;;;;;;5056810;28;19904;-77
2023/03/19 04:09:39;;;;;;;;;;;128.30;2252.80;;;;;;5054265;28;20033;-75
2023/03/19 04:12:04;;;;;;;8.80;5.30;;;128.30;2252.80;;;;;;5064816;28;20361;-76
2023/03/19 04:14:30;;;;;;;;;;;128.30;2252.80;;;;;;5065342;28;20024;-76
2023/03/19 04:16:56;;;;;;;12.70;5.03;;;128.30;2252.80;;;;;;5056600;28;20569;-75
2023/03/19 04:19:21;;;;;;;;;;;128.30;2252.80;;;;;;5074477;28;20110;-76
2023/03/19 04:21:47;;;;;;;20.67;4.72;;;128.30;2252.80;;;;;;5056453;28;19904;-76
2023/03/19 04:24:13;;;;;;;;;;;128.30;2252.80;;;;;;5043135;28;20031;-76
2023/03/19 04:26:39;;;;;;;9.57;4.93;;;128.30;2252.80;;;;;;5073584;28;20296;-75
2023/03/19 04:29:05;;;;;;;;;;;128.20;2252.80;;;;;;5074863;28;20032;-76
2023/03/19 04:31:30;;;;;;;9.40;4.53;;;128.30;2252.80;;;;;;5048050;28;19958;-76
2023/03/19 04:33:56;;;;;;;;;;;128.20;2252.80;;;;;;5074603;28;20025;-76
2023/03/19 04:36:22;;;;;;;10.90;4.30;;;128.20;2252.80;;;;;;5055995;28;19934;-75
2023/03/19 04:38:48;;;;;;;;;;;128.20;2252.80;;;;;;5051144;28;20024;-76
2023/03/19 04:41:15;;;;;;;9.07;4.85;;;128.10;2252.80;;;;;;5073806;28;19911;-75
2023/03/19 04:43:41;;;;;;;10.27;4.13;;;128.10;2252.80;;;;;;5073796;28;20474;-75
2023/03/19 04:46:07;;;;;;;;;;;128.10;2252.80;;;;;;5079505;28;20028;-75
2023/03/19 04:48:34;;;;;;;7.55;3.78;;;103.30;2227.20;;;;;;5055995;28;19904;-76
2023/03/19 04:51:02;;;;;;;9.57;4.60;;;128.00;2252.80;;;;;;5073586;28;20028;-75
2023/03/19 04:53:29;;;;;;;9.75;4.50;;;128.00;2252.80;;;;;;5039805;28;20021;-75
2023/03/19 04:55:55;;;;;;;9.55;4.60;;;103.30;2227.20;;;;;;5073815;28;20489;-76
2023/03/19 04:58:21;;;;;;;11.02;4.47;;;103.30;2227.20;;;;;;5073509;28;20025;-75
2023/03/19 05:00:47;;;;;;;9.68;5.07;;;103.30;2227.20;;;;;;5073687;28;20393;-75
2023/03/19 05:03:13;;;;;;;;;;;128.10;2252.80;;;;;;5074216;28;20111;-76
2023/03/19 05:05:39;;;;;;;7.50;3.50;;;128.30;2252.80;;;;;;5073984;28;20350;-75
2023/03/19 05:08:06;;;;;;;;;;;128.30;2252.80;;;;;;5073072;28;20031;-75
2023/03/19 05:10:33;;;;;;;11.27;5.30;;;128.50;2252.80;;;;;;5039938;28;19912;-74
2023/03/19 05:12:59;;;;;;;8.10;4.20;;;128.60;2252.80;;;;;;5057125;28;20099;-75
2023/03/19 05:15:24;;;;;;;;;;;128.70;2252.80;;;;;;5065614;28;20095;-76
2023/03/19 05:17:50;;;;;;;18.08;8.65;;;128.60;2252.80;;;;;;5054934;28;19916;-75
2023/03/19 05:20:16;;;;;;;;;;;128.60;2252.80;;;;;;5050060;28;20024;-75
2023/03/19 05:22:42;;;;;;;7.85;4.20;;;128.50;2252.80;;;;;;5070072;28;19908;-75
2023/03/19 05:25:08;;;;;;;;;;;128.50;2252.80;;;;;;5073585;28;20101;-76
2023/03/19 05:27:34;;;;;;;8.05;3.50;;;128.60;2252.80;;;;;;5055146;28;19923;-77
2023/03/19 05:30:00;;;;;;;9.20;4.22;;;128.40;2252.80;;;;;;5055147;28;20032;-75
2023/03/19 05:32:26;;;;;;;;;;;128.80;2252.80;;;;;;5047362;28;20035;-75
2023/03/19 05:34:52;;;;;;;10.35;3.88;;;128.70;2252.80;;;;;;5049398;28;19905;-75
2023/03/19 05:37:18;;;;;;;;;;;128.70;2252.80;;;;;;5045927;28;20224;-75
2023/03/19 05:39:43;;;;;;;7.05;3.70;;;128.50;2252.80;;;;;;5073519;28;19978;-75
2023/03/19 05:42:09;;;;;;;;;;;128.50;2252.80;;;;;;5073860;28;20023;-75
2023/03/19 05:44:35;;;;;;;7.82;4.20;;;128.60;2252.80;;;;;;5055841;28;20259;-75
2023/03/19 05:47:01;;;;;;;7.78;4.43;;;128.70;2252.80;;;;;;5055662;28;20031;-75
2023/03/19 05:49:26;;;;;;;;;;;128.70;2252.80;;;;;;5073418;28;20105;-75
2023/03/19 05:51:52;;;;;;;7.18;3.80;;;128.60;2252.80;;;;;;5055196;28;19919;-75
2023/03/19 05:54:18;;;;;;;;;;;128.70;2252.80;;;;;;5073772;28;20482;-76
2023/03/19 05:56:44;;;;;;;8.85;3.88;;;128.70;2252.80;;;;;;5055463;28;19908;-75
2023/03/19 05:59:09;;;;;;;;;;;128.90;2252.80;;;;;;5055842;28;20474;-75
2023/03/19 06:01:35;;;;;;;8.60;4.63;;;128.80;2252.80;;;;;;5051946;28;19950;-75
2023/03/19 06:04:01;;;;;;;;;;;128.90;2252.80;;;;;;5073705;28;20021;-75
2023/03/19 06:06:26;;;;;;;8.32;4.28;;;153.70;2252.80;;;;;;5047859;28;20373;-75
2023/03/19 06:08:52;;;;;;;;;;;153.80;2252.80;;;;;;5050323;28;20024;-74
2023/03/19 06:11:18;;;;;;;8.48;4.20;;;153.90;2252.80;;;;;;5055017;28;19920;-75
2023/03/19 06:13:45;;;;;;;;;;;154.00;2252.80;;;;;;5055775;28;20071;-75
2023/03/19 06:16:11;;;;;;;9.15;3.50;;;154.00;2252.80;;;;;;5064863;28;19949;-76
2023/03/19 06:18:37;;;;;;;8.93;4.45;;;154.10;2252.80;;;;;;5072880;28;20090;-76
2023/03/19 06:21:03;;;;;;;;;;;154.30;2252.80;;;;;;5052732;28;20107;-76
2023/03/19 06:23:29;;;;;;;10.07;4.10;;;154.40;2252.80;;;;;;5054901;28;19908;-76
2023/03/19 06:25:54;;;;;;;;;;;179.20;2252.80;;;;;;5050818;28;20359;-75
2023/03/19 06:28:20;;;;;;;7.60;4.32;;;179.30;2252.80;;;;;;5055218;28;20277;-75
2023/03/19 06:30:45;;;;;;;;;;;179.40;2252.80;;;;;;5073213;28;20033;-75
2023/03/19 06:33:11;;;;;;;12.68;4.65;;;179.60;2252.80;;;;;;5072878;28;20341;-77
2023/03/19 06:35:37;;;;;;;;;;;179.70;2252.80;;;;;;5073018;28;20078;-76
2023/03/19 06:38:02;;;;;;;11.05;4.72;;;179.90;2252.80;;;;;;5053930;28;20325;-77
2023/03/19 06:40:28;;;;;;;;;;;180.10;2252.80;;;;;;5073134;28;20024;-77
2023/03/19 06:42:53;;;;;;;8.45;4.05;;;204.80;2252.80;;;;;;5054634;28;19912;-76
2023/03/19 06:45:19;;;;;;;;;;;204.80;2252.80;;;;;;5049604;28;20039;-76
2023/03/19 06:47:46;;;;;;;13.13;4.78;;;205.30;2252.80;;;;;;5054335;28;19904;-77
2023/03/19 06:50:13;;;;;;;12.20;4.00;;;205.00;2252.80;;;;;;5042776;28;20033;-78
2023/03/19 06:52:40;;;;;;;5.63;3.58;;;205.10;2252.80;;;;;;5046558;28;20031;-77
2023/03/19 06:55:07;;;;;;;9.13;4.20;;;205.30;2252.80;;;;;;5072101;28;20029;-76
2023/03/19 06:57:33;;;;;;;9.57;3.97;;;205.30;2252.80;;;;;;5072266;28;20576;-75
2023/03/19 06:59:59;;;;;;;8.82;3.65;;;205.60;2252.80;;;;;;5073052;28;20060;-76
2023/03/19 07:02:25;;;;;;;;;;;205.70;2252.80;;;;;;5056901;28;20105;-77
2023/03/19 07:04:51;;;;;;;7.55;3.92;;;230.50;2227.20;;;;;;5049830;28;19959;-78
2023/03/19 07:07:17;;;;;;;8.80;3.63;;;230.70;2201.60;;;;;;5049877;28;20087;-76
2023/03/19 07:09:43;;;;;;;6.43;3.60;;;230.90;2073.60;;;;;;5049965;28;20379;-74
2023/03/19 07:12:09;;;;;;;6.72;3.25;;;231.10;1996.80;;;;;;5050724;28;20032;-77
2023/03/19 07:14:35;;;;;;;5.82;3.10;;;231.20;1920.00;;;;;;5054327;28;20028;-76
2023/03/19 07:17:00;;;;;;;10.68;3.78;;;256.00;1894.40;;;;;;5055431;28;20045;-75
2023/03/19 07:19:26;;;;;;;;;;;256.00;1843.20;;;;;;5064974;28;20063;-75
2023/03/19 07:21:52;;;;;;;7.53;3.38;;;256.20;1817.60;;;;;;5057822;28;20361;-75
2023/03/19 07:24:17;;;;;;;7.28;3.47;;;256.20;1817.60;;;;;;5050984;28;20055;-76
2023/03/19 07:26:43;;;;;;;;;;;256.30;1817.60;;;;;;5076329;28;20036;-77
2023/03/19 07:29:10;;;;;;;11.43;4.75;;;256.30;1766.40;;;;;;5075490;28;19954;-76
2023/03/19 07:31:36;;;;;;;9.27;3.30;;;256.50;1792.00;;;;;;5057306;28;20037;-76
2023/03/19 07:34:02;;;;;;;6.95;2.95;;;256.80;1792.00;;;;;;5054165;28;20021;-76
2023/03/19 07:36:28;;;;;;;11.90;4.10;;;256.90;1740.80;;;;;;5058031;28;20028;-74
2023/03/19 07:38:54;;;;;;;10.05;3.60;;;256.90;1715.20;;;;;;5076028;28;20028;-78
2023/03/19 07:41:20;;;;;;;6.28;3.40;;;281.70;1740.80;;;;;;5057876;28;20497;-75
2023/03/19 07:43:45;;;;;;;7.22;3.10;;;281.80;1740.80;;;;;;5071553;28;20024;-75
2023/03/19 07:46:11;;;;;;;6.82;3.35;;;281.80;1740.80;;;;;;5057868;28;20047;-75
2023/03/19 07:48:37;;;;;;;7.18;3.53;;;281.70;1689.60;;;;;;5052508;28;20082;-75
2023/03/19 07:51:02;;;;;;;8.38;2.80;;;281.70;1715.20;;;;;;5057204;28;20167;-78
2023/03/19 07:53:28;;;;;;;;;;;281.80;1715.20;;;;;;5054678;28;20040;-76
2023/03/19 07:55:54;;;;;;;6.22;3.35;;;281.80;1689.60;;;;;;5050355;28;19905;-75
2023/03/19 07:58:19;;;;;;;;;;;281.90;1689.60;;;;;;5067028;28;20028;-76
2023/03/19 08:00:45;;;;;;;8.40;3.90;;;282.00;1689.60;;;;;;5056610;28;19930;-75
2023/03/19 08:03:11;;;;;;;9.57;4.13;;;282.10;1689.60;;;;;;5057693;28;20071;-78
2023/03/19 08:05:37;;;;;;;11.02;3.25;;;282.10;1638.40;;;;;;5048789;28;20025;-78
2023/03/19 08:08:03;;;;;;;13.95;3.80;;;282.20;1638.40;;;;;;5050648;28;20066;-79
2023/03/19 08:10:29;;;;;;;;;;;282.20;1638.40;;;;;;5051385;28;20055;-79
2023/03/19 08:12:54;;;;;;;10.43;3.88;;;282.20;1612.80;;;;;;5056883;28;19911;-78
2023/03/19 08:15:20;;;;;;;;;;;282.30;1638.40;;;;;;5071365;28;20052;-78
2023/03/19 08:17:46;;;;;;;6.18;3.17;;;282.40;1638.40;;;;;;5051569;28;19917;-77
2023/03/19 08:20:17;;;;;;;10.52;3.75;;;307.20;1638.40;;;;;;5049676;28;20028;-79
2023/03/19 08:22:47;;;;;;;10.75;4.40;;;282.50;1561.60;;;;;;5047536;28;20025;-76
2023/03/19 08:25:13;;;;;;;7.82;3.90;;;307.30;1612.80;;;;;;5054085;28;20447;-77
2023/03/19 08:27:39;;;;;;;10.60;3.60;;;307.30;1587.20;;;;;;5073820;28;20107;-77
2023/03/19 08:30:08;;;;;;;10.75;4.85;;;307.40;1612.80;;;;;;5049919;28;20062;-77
2023/03/19 08:32:35;;;;;;;7.90;3.80;;;307.50;1587.20;;;;;;5073914;28;20045;-76
2023/03/19 08:35:01;;;;;;;9.95;4.22;;;307.50;1561.60;;;;;;5073192;28;20083;-77
2023/03/19 08:37:27;;;;;;;7.13;3.45;;;307.70;1561.60;;;;;;5073904;28;20025;-76
2023/03/19 08:39:52;;;;;;;5.72;3.47;;;307.60;1561.60;;;;;;5073466;28;20118;-77
2023/03/19 08:42:19;;;;;;;9.27;4.47;;;307.60;1561.60;;;;;;5073912;28;20062;-76
2023/03/19 08:44:45;;;;;;;13.13;4.13;;;307.70;1561.60;;;;;;5054487;28;20485;-77
2023/03/19 08:47:11;;;;;;;11.43;5.13;;;307.80;1561.60;;;;;;5055049;28;20047;-76
2023/03/19 08:49:37;;;;;;;;;;;307.80;1536.00;;;;;;5073010;28;20028;-75
2023/03/19 08:52:03;;;;;;;8.60;4.57;;;307.90;1536.00;;;;;;5070635;28;19970;-76
2023/03/19 08:54:29;;;;;;;7.25;3.95;;;308.00;1536.00;;;;;;5054724;28;20027;-77
2023/03/19 08:56:55;;;;;;;7.82;3.90;;;308.10;1536.00;;;;;;5073476;28;20024;-77
2023/03/19 08:59:21;;;;;;;10.77;5.32;;;332.90;1587.20;;;;;;5053293;28;20470;-78
2023/03/19 09:01:51;;;;;;;10.07;5.32;;;333.00;1561.60;;;;;;5046859;28;20059;-75
2023/03/19 09:04:16;;;;;;;12.00;5.18;;;333.10;1561.60;;;;;;5074806;28;20019;-76
2023/03/19 09:06:43;;;;;;;9.90;4.50;;;333.20;1536.00;;;;;;5074158;28;20021;-74
2023/03/19 09:09:10;;;;;;;11.10;4.85;;;333.10;1510.40;;;;;;5074067;28;20028;-76
2023/03/19 09:11:36;;;;;;;11.90;5.07;;;333.20;1510.40;;;;;;5074177;28;20080;-76
2023/03/19 09:14:01;;;;;;;9.32;4.40;;;333.20;1484.80;;;;;;5073824;28;20048;-76
2023/03/19 09:16:27;;;;;;;9.68;4.38;;;333.40;1484.80;;;;;;5064526;28;20033;-76
2023/03/19 09:18:53;;;;;;;9.98;5.50;;;333.40;1484.80;;;;;;5056121;28;20066;-74
2023/03/19 09:21:19;;;;;;;8.50;4.05;;;333.50;1459.20;;;;;;5070284;28;20029;-77
2023/03/19 09:23:44;;;;;;;9.98;4.03;;;333.70;1459.20;;;;;;5053399;28;20463;-76
2023/03/19 09:26:10;;;;;;;9.20;4.20;;;358.60;1484.80;;;;;;5054484;28;20025;-80
2023/03/19 09:28:36;;;;;;;7.35;4.43;;;358.70;1459.20;;;;;;5048611;28;20178;-80
2023/03/19 09:31:05;;;;;;;7.25;4.38;;;358.70;1433.60;;;;;;5056525;28;20037;-81
2023/03/19 09:33:32;;;;;;;9.20;4.65;;;358.90;1459.20;;;;;;5051116;28;20021;-80
2023/03/19 09:35:58;;;;;;;7.18;4.43;;;358.80;1408.00;;;;;;5051463;28;20031;-77
2023/03/19 09:38:23;;;;;;;10.10;5.93;;;359.10;1408.00;;;;;;5047863;28;20020;-79
2023/03/19 09:41:17;;;;;;;10.20;5.65;;;384.00;1433.60;;;;;;5048729;28;20497;-77
2023/03/19 09:43:55;;;;;;;9.25;5.22;;;384.20;1433.60;;;;;;5046837;28;20093;-77
2023/03/19 09:46:43;;;;;;;11.82;5.00;;;384.30;1408.00;;;;;;5068216;28;20099;-77
2023/03/19 09:49:35;;;;;;;11.32;5.25;;;384.30;1382.40;;;;;;5052121;28;20039;-79
2023/03/19 09:52:19;;;;;;;9.10;5.30;;;384.40;1382.40;;;;;;5047904;28;20040;-80
2023/03/19 09:54:48;;;;;;;12.63;5.30;;;384.50;1356.80;;;;;;5071158;28;20100;-78
2023/03/19 09:57:16;;;;;;;9.98;4.63;;;384.50;1331.20;;;;;;5073014;28;20024;-77
2023/03/19 09:59:42;;;;;;;10.95;5.60;;;384.70;1331.20;;;;;;5073499;28;20017;-76
2023/03/19 10:02:42;;;;;;;8.98;5.13;;;384.90;1356.80;;;;;;5070376;28;20090;-79
2023/03/19 10:05:35;;;;;;;14.18;5.28;;;409.60;1356.80;;;;;;5064951;28;20028;-76
2023/03/19 10:08:21;;;;;;;17.88;5.68;;;409.90;1382.40;;;;;;5067117;28;20016;-78
2023/03/19 10:10:58;;;;;;;9.35;4.88;;;410.10;1356.80;;;;;;5071338;28;20044;-82
2023/03/19 10:13:41;;;;;;;11.43;5.30;;;409.90;1331.20;;;;;;5054669;28;20505;-78
2023/03/19 10:16:23;;;;;;;10.63;5.60;;;410.10;1331.20;;;;;;5050747;28;20047;-79
2023/03/19 10:18:51;;;;;;;11.85;4.85;;;410.20;1331.20;;;;;;5055176;28;20143;-78
2023/03/19 10:21:28;;;;;;;8.00;4.75;;;410.50;1280.00;;;;;;5046962;28;20025;-77
2023/03/19 10:23:54;;;;;;;9.70;5.63;;;435.30;1228.80;;;;;;5041242;28;20027;-77
2023/03/19 10:26:28;;;;;;;10.80;5.55;;;435.60;1305.60;;;;;;5066711;28;20071;-77
2023/03/19 10:29:04;;;;;;;8.05;4.90;;;435.60;1280.00;;;;;;5065555;28;20025;-78
2023/03/19 10:31:30;;;;;;;;;;;435.60;1280.00;;;;;;5051085;28;20037;-77
2023/03/19 10:34:22;;;;;;;9.57;4.43;;;435.80;1254.40;;;;;;5046136;28;19919;-77
2023/03/19 10:36:48;;;;;;;8.95;5.38;;;435.90;1254.40;;;;;;5053395;28;20067;-78
2023/03/19 10:39:18;;;;;;;6.97;4.78;;;460.90;1254.40;;;;;;5051722;28;20052;-78
2023/03/19 10:41:43;;;;;;;8.07;5.05;;;461.10;1254.40;;;;;;5065710;28;20035;-77
2023/03/19 10:44:37;;;;;;;9.07;5.50;;;461.10;1228.80;;;;;;5071251;28;20033;-77
2023/03/19 10:47:14;;;;;;;11.15;5.38;;;461.30;1203.20;;;;;;4946753;29;20082;-77
2023/03/19 10:49:41;;;;;;;7.63;5.03;;;461.50;1177.60;;;;;;4946109;28;20039;-78
2023/03/19 10:52:17;;;;;;;7.63;5.00;;;486.40;1177.60;;;;;;4953310;28;20456;-77
2023/03/19 10:54:44;;;;;;;9.63;5.22;;;486.50;1152.00;;;;;;4952610;28;20117;-77
2023/03/19 10:57:24;;;;;;;8.30;4.47;;;486.50;1177.60;;;;;;4971226;28;20038;-77
2023/03/19 10:59:49;;;;;;;7.35;4.43;;;486.70;1152.00;;;;;;4953911;28;20031;-77
2023/03/19 11:02:19;;;;;;;9.98;4.70;;;486.90;1126.40;;;;;;4971380;28;20023;-78
2023/03/19 11:04:48;;;;;;;8.30;4.90;;;486.90;1126.40;;;;;;4971330;28;20047;-77
2023/03/19 11:07:31;;;;;;;7.80;4.65;;;487.00;1126.40;;;;;;4913527;29;20068;-77
2023/03/19 11:09:57;;;;;;;8.75;4.93;;;487.20;1126.40;;;;;;4913371;29;20111;-76
2023/03/19 11:12:34;;;;;;;9.05;5.00;;;512.20;1100.80;;;;;;4914002;29;20620;-75
2023/03/19 11:15:06;;;;;;;10.20;4.88;;;512.40;1049.60;;;;;;4913899;29;20050;-77
2023/03/19 11:17:39;;;;;;;8.90;5.70;;;512.30;1100.80;;;;;;4913922;29;20051;-77
2023/03/19 11:20:18;;;;;;;9.00;4.72;;;512.60;1075.20;;;;;;4897246;29;20042;-80
2023/03/19 11:22:45;;;;;;;8.60;5.22;;;512.80;1049.60;;;;;;4913356;29;20490;-82
2023/03/19 11:25:30;;;;;;;6.18;3.92;;;512.90;1024.00;;;;;;4998480;28;20474;-77
2023/03/19 11:28:01;;;;;;;7.68;4.30;;;537.80;1024.00;;;;;;5000798;28;20026;-77
2023/03/19 11:30:42;;;;;;;13.32;4.13;;;538.00;998.40;;;;;;5010244;28;20148;-76
2023/03/19 11:33:22;;;;;;;7.32;4.90;;;538.00;1024.00;;;;;;4991217;28;20034;-74
2023/03/19 11:36:06;;;;;;;8.02;4.50;;;538.40;998.40;;;;;;4993625;28;20018;-79
2023/03/19 11:39:05;;;;;;;5.38;3.90;;;538.40;947.20;;;;;;5025221;28;20098;-79
2023/03/19 11:41:49;;;;;;;11.40;4.30;;;538.40;921.60;;;;;;5048241;28;20023;-78
2023/03/19 11:44:27;;;;;;;11.05;5.25;;;538.50;947.20;;;;;;5054073;28;20020;-77
2023/03/19 11:47:14;;;;;;;7.57;4.95;;;538.40;972.80;;;;;;5050784;28;20070;-77
2023/03/19 11:49:42;;;;;;;;;;;563.20;972.80;;;;;;5067634;28;20186;-77
2023/03/19 11:52:17;;;;;;;6.88;4.50;;;563.60;947.20;;;;;;5075675;28;19958;-77
2023/03/19 11:55:07;;;;;;;9.18;4.70;;;563.20;972.80;;;;;;5068462;28;20021;-78
2023/03/19 11:57:51;;;;;;;7.00;3.65;;;563.40;947.20;;;;;;5054500;28;20016;-77
2023/03/19 12:00:51;;;;;;;6.38;3.45;;;563.40;947.20;;;;;;5062705;28;20040;-77
2023/03/19 12:03:36;;;;;;;9.15;3.75;;;563.60;870.40;;;;;;5068387;28;20017;-78
2023/03/19 12:06:28;;;;;;;8.60;4.10;;;563.80;921.60;;;;;;5069082;28;20019;-77
2023/03/19 12:09:06;;;;;;;6.53;4.00;;;563.40;921.60;;;;;;5055822;28;20025;-77
2023/03/19 12:12:10;;;;;;;7.00;4.00;;;563.20;921.60;;;;;;5075348;28;20038;-77
2023/03/19 12:14:59;;;;;;;6.20;4.00;;;538.40;921.60;;;;;;5036575;28;20024;-80
2023/03/19 12:18:02;;;;;;;6.43;3.85;;;538.10;921.60;;;;;;5053746;28;20530;-83
2023/03/19 12:20:35;;;;;;;6.97;4.15;;;538.50;896.00;;;;;;5048533;28;20475;-80
2023/03/19 12:23:27;;;;;;;9.57;3.75;;;563.60;921.60;;;;;;5047935;28;20120;-80
2023/03/19 12:26:03;;;;;;;8.20;4.95;;;563.90;947.20;;;;;;5049472;28;20112;-84
2023/03/19 12:28:34;;;;;;;7.32;4.40;;;564.00;896.00;;;;;;5054988;28;20043;-80
2023/03/19 12:31:09;;;;;;;7.50;4.10;;;564.10;870.40;;;;;;5050782;28;20116;-82
2023/03/19 12:33:46;;;;;;;6.30;4.40;;;564.10;896.00;;;;;;5047400;28;20033;-79
2023/03/19 12:36:19;;;;;;;14.20;5.70;;;564.10;896.00;;;;;;5047399;28;20029;-81
2023/03/19 12:38:53;;;;;;;5.97;3.80;;;588.80;896.00;;;;;;5047030;28;20022;-82
2023/03/19 12:41:28;;;;;;;17.15;7.30;;;564.10;896.00;;;;;;5049925;28;20029;-83
2023/03/19 12:44:07;;;;;;;8.85;5.35;;;564.10;896.00;;;;;;5051250;28;20029;-84